Time;durP1;ratioP1;P1;durP2;ratioP2;P2;SDS_P1;SDS_P2;PMS_P1;PMS_P2;Temp;Humidity;BMP_temperature;BMP_pressure;BME280_temperature;BME280_humidity;BME280_pressure;Samples;Min_cycle;Max_cycle;Signal;HPM_P1;HPM_P2
2021/05/20 00:02:22;;;;;;;2.60;1.10;;;10.90;66.90;;;11.11;56.49;97928.56;4964920;28;20050;-48
2021/05/20 00:04:51;;;;;;;1.93;0.83;;;10.90;67.10;;;10.96;56.97;97929.16;4964466;28;20059;-52
2021/05/20 00:07:19;;;;;;;1.67;1.00;;;10.90;67.20;;;10.92;57.41;97929.63;4966215;28;20363;-53
2021/05/20 00:09:47;;;;;;;1.48;0.82;;;10.80;67.30;;;10.82;57.15;97924.41;4948138;28;20051;-53
2021/05/20 00:12:15;;;;;;;1.17;1.07;;;10.80;67.40;;;10.75;57.71;97926.00;4967003;28;20043;-53
2021/05/20 00:14:44;;;;;;;1.17;0.90;;;10.80;67.40;;;10.77;57.54;97932.03;4965521;28;20064;-50
2021/05/20 00:17:12;;;;;;;1.40;1.00;;;10.80;67.30;;;10.77;57.66;97938.16;4965280;28;20792;-51
2021/05/20 00:19:40;;;;;;;2.50;1.13;;;10.80;67.30;;;10.86;56.96;97932.91;4966572;28;20063;-50
2021/05/20 00:22:08;;;;;;;1.38;1.10;;;10.80;67.50;;;10.85;57.42;97929.41;4964731;28;20055;-52
2021/05/20 00:24:36;;;;;;;1.20;1.00;;;10.80;67.50;;;10.89;57.19;97935.25;4965931;28;20069;-53
2021/05/20 00:27:05;;;;;;;1.87;1.07;;;10.80;67.50;;;10.81;57.15;97928.88;4966167;28;20055;-52
2021/05/20 00:29:33;;;;;;;3.47;1.10;;;10.80;67.30;;;10.80;57.33;97937.03;4965820;28;20063;-52
2021/05/20 00:32:01;;;;;;;0.95;0.90;;;10.80;67.30;;;10.79;57.64;97938.03;4965956;28;20055;-51
2021/05/20 00:34:30;;;;;;;0.90;0.90;;;10.70;67.90;;;10.73;57.87;97947.47;4966342;28;20042;-53
2021/05/20 00:36:58;;;;;;;1.27;1.10;;;10.70;67.70;;;10.70;57.65;97944.28;4966271;28;20073;-53
2021/05/20 00:39:26;;;;;;;1.60;0.93;;;10.70;67.80;;;10.72;57.83;97947.63;4965658;28;20051;-54
2021/05/20 00:41:54;;;;;;;2.10;0.93;;;10.80;67.50;;;10.76;57.05;97951.63;4965148;28;20065;-50
2021/05/20 00:44:23;;;;;;;1.30;1.00;;;10.80;67.50;;;10.79;56.99;97952.16;4961660;28;20230;-53
2021/05/20 00:46:51;;;;;;;1.00;0.90;;;10.70;67.70;;;10.77;57.36;97953.31;4964954;28;20059;-54
2021/05/20 00:49:19;;;;;;;2.43;0.83;;;10.70;67.90;;;10.71;57.22;97944.13;4966376;28;20248;-52
2021/05/20 00:51:47;;;;;;;1.03;0.83;;;10.60;68.00;;;10.72;56.96;97948.47;4964951;28;20276;-52
2021/05/20 00:54:15;;;;;;;2.67;1.20;;;10.50;68.30;;;10.75;57.31;97955.31;4965614;28;20055;-52
2021/05/20 00:56:44;;;;;;;1.00;0.87;;;10.50;68.30;;;10.73;57.15;97951.97;4947326;28;20051;-51
2021/05/20 00:59:12;;;;;;;3.03;0.90;;;10.40;68.40;;;10.67;57.05;97955.25;4964584;28;20073;-53
2021/05/20 01:01:41;;;;;;;3.00;1.23;;;10.40;68.60;;;10.62;57.41;97961.88;4980242;28;20058;-54
2021/05/20 01:04:09;;;;;;;1.07;0.90;;;10.40;68.60;;;10.61;57.49;97957.53;4965286;28;20053;-52
2021/05/20 01:06:37;;;;;;;1.10;0.80;;;10.40;68.60;;;10.63;57.04;97958.22;4980012;28;20049;-51
2021/05/20 01:09:06;;;;;;;2.37;1.63;;;10.40;68.60;;;10.61;57.53;97956.69;4964419;28;20069;-51
2021/05/20 01:11:35;;;;;;;1.07;0.90;;;10.30;68.90;;;10.57;57.59;97961.50;4965852;28;20061;-54
2021/05/20 01:14:03;;;;;;;2.03;0.70;;;10.30;68.90;;;10.57;57.48;97956.16;4964415;28;20069;-53
2021/05/20 01:16:31;;;;;;;1.33;1.10;;;10.30;68.90;;;10.51;57.38;97967.44;4965629;28;20051;-53
2021/05/20 01:18:59;;;;;;;1.60;1.13;;;10.30;68.90;;;10.50;57.83;97970.25;4965761;28;20057;-53
2021/05/20 01:21:27;;;;;;;2.00;1.20;;;10.30;69.00;;;10.44;58.02;97966.34;4965254;28;20049;-53
2021/05/20 01:23:56;;;;;;;2.40;1.00;;;10.20;69.10;;;10.45;57.51;97970.72;4968537;28;20056;-54
2021/05/20 01:26:25;;;;;;;3.17;1.07;;;10.10;69.30;;;10.44;58.11;97969.03;4967750;28;20550;-52
2021/05/20 01:28:53;;;;;;;1.10;1.00;;;10.20;69.40;;;10.41;58.57;97964.00;4969931;28;20204;-52
2021/05/20 01:31:21;;;;;;;2.17;1.10;;;10.20;69.50;;;10.42;57.96;97968.34;4967942;28;20057;-53
2021/05/20 01:33:49;;;;;;;1.30;1.00;;;10.20;69.20;;;10.46;57.62;97960.88;4969410;28;20059;-51
2021/05/20 01:36:28;;;;;;;2.40;1.10;;;10.20;69.20;;;10.43;58.35;97967.38;4967408;28;20062;-53
2021/05/20 01:39:04;;;;;;;1.83;0.90;;;10.20;69.90;;;10.40;58.03;97960.50;4967513;28;20062;-54
2021/05/20 01:41:32;;;;;;;1.30;0.80;;;10.10;70.20;;;10.40;57.78;97959.66;4968912;28;20054;-50
2021/05/20 01:44:00;;;;;;;2.00;1.60;;;10.00;69.80;;;10.39;57.71;97968.63;4968320;28;20061;-54
2021/05/20 01:46:28;;;;;;;1.03;0.87;;;10.00;70.10;;;10.36;58.15;97968.94;4968758;28;20050;-53
2021/05/20 01:48:56;;;;;;;2.07;0.97;;;9.90;71.40;;;10.27;57.99;97975.97;4967397;28;20051;-51
2021/05/20 01:51:26;;;;;;;1.50;1.00;;;9.70;71.30;;;10.22;57.92;97971.13;4968031;28;20131;-50
2021/05/20 01:53:58;;;;;;;2.13;0.97;;;9.70;71.90;;;10.17;58.42;97976.03;4969681;28;20288;-50
2021/05/20 01:56:27;;;;;;;1.03;0.93;;;9.70;71.90;;;10.15;58.11;97985.16;4968737;28;20046;-52
2021/05/20 01:58:55;;;;;;;6.23;1.63;;;9.70;71.70;;;10.12;58.64;97975.69;4967865;28;20058;-51
2021/05/20 02:01:24;;;;;;;1.60;1.00;;;9.70;71.70;;;10.11;58.87;97979.31;4967779;28;20057;-53
2021/05/20 02:03:52;;;;;;;2.70;0.80;;;9.70;71.70;;;10.09;59.34;97980.44;4969068;28;20055;-51
2021/05/20 02:06:21;;;;;;;1.33;1.13;;;9.80;71.70;;;10.10;58.75;97979.44;4968393;28;20061;-49
2021/05/20 02:08:49;;;;;;;1.73;0.70;;;9.80;71.40;;;10.07;59.36;97980.59;4968195;28;20050;-49
2021/05/20 02:11:17;;;;;;;3.67;1.17;;;9.80;71.50;;;10.07;59.36;97977.09;4967493;28;20047;-49
2021/05/20 02:13:45;;;;;;;1.27;1.17;;;9.80;71.70;;;10.07;59.27;97977.09;4967741;28;20055;-52
2021/05/20 02:16:14;;;;;;;1.30;0.90;;;9.80;71.70;;;10.05;59.62;97988.72;4968455;28;20255;-53
2021/05/20 02:18:43;;;;;;;0.87;0.60;;;9.80;71.90;;;10.02;59.58;97986.38;4968163;28;20067;-52
2021/05/20 02:21:11;;;;;;;2.37;1.10;;;9.80;72.00;;;9.99;59.62;97991.16;4967521;28;20057;-53
2021/05/20 02:23:39;;;;;;;1.70;0.87;;;9.70;72.00;;;9.97;59.81;97985.16;4966056;28;20051;-50
2021/05/20 02:26:07;;;;;;;1.10;1.00;;;9.70;72.10;;;9.97;60.11;97982.50;4967581;28;20057;-51
2021/05/20 02:28:36;;;;;;;1.37;1.00;;;9.70;72.30;;;9.93;60.12;97989.91;4967331;28;20057;-50
2021/05/20 02:31:04;;;;;;;3.17;0.90;;;9.80;72.10;;;9.92;60.26;97987.41;4966253;28;20073;-54
2021/05/20 02:33:32;;;;;;;1.93;0.97;;;9.80;72.20;;;9.89;60.79;97987.69;4967161;28;20403;-53
2021/05/20 02:36:00;;;;;;;1.33;1.03;;;9.90;72.10;;;9.88;60.72;97983.38;4967437;28;20236;-51
2021/05/20 02:38:29;;;;;;;1.50;0.60;;;10.00;72.00;;;9.88;61.06;97994.00;4980533;28;20234;-52
2021/05/20 02:40:57;;;;;;;2.50;1.00;;;10.00;71.40;;;9.85;61.34;97993.31;4967417;28;20813;-49
2021/05/20 02:43:26;;;;;;;1.70;1.10;;;10.00;71.40;;;9.83;61.27;97991.81;4966734;28;20047;-52
2021/05/20 02:45:54;;;;;;;1.20;0.80;;;10.10;71.50;;;9.82;61.21;97982.97;4981096;28;20068;-51
2021/05/20 02:48:22;;;;;;;1.13;1.00;;;10.00;71.90;;;9.91;60.87;97989.25;4968019;28;20329;-51
2021/05/20 02:50:50;;;;;;;0.83;0.83;;;10.00;71.70;;;9.97;60.89;97990.47;4981451;28;20051;-49
2021/05/20 02:53:19;;;;;;;1.87;1.77;;;10.10;71.70;;;9.99;60.73;97999.97;4965629;28;20058;-53
2021/05/20 02:55:47;;;;;;;2.27;1.30;;;10.00;71.80;;;10.02;60.69;97996.16;4965887;28;20050;-51
2021/05/20 02:58:17;;;;;;;1.03;0.93;;;10.00;71.80;;;10.04;60.53;97989.72;4967351;28;20370;-49
2021/05/20 03:00:46;;;;;;;1.40;1.03;;;10.00;71.90;;;10.05;60.95;97993.22;4967241;28;20054;-52
2021/05/20 03:03:16;;;;;;;2.10;1.33;;;10.00;72.40;;;10.13;60.49;98001.28;4965804;28;20356;-51
2021/05/20 03:05:44;;;;;;;2.40;1.87;;;10.00;72.00;;;10.19;60.30;98000.66;4966035;28;20370;-52
2021/05/20 03:08:13;;;;;;;1.23;1.13;;;10.00;71.90;;;10.23;60.19;98004.69;4966481;28;20058;-48
2021/05/20 03:10:41;;;;;;;2.40;1.40;;;10.00;72.10;;;10.17;60.12;98004.47;4967384;28;20064;-51
2021/05/20 03:13:09;;;;;;;2.13;1.07;;;9.90;73.20;;;10.18;60.02;98012.31;4966498;28;20244;-51
2021/05/20 03:15:37;;;;;;;1.50;1.40;;;9.90;72.80;;;10.25;59.95;98015.19;4966805;28;20069;-49
2021/05/20 03:18:05;;;;;;;3.13;1.90;;;10.00;72.40;;;10.29;60.18;98013.91;4965466;28;20050;-50
2021/05/20 03:20:34;;;;;;;1.80;1.33;;;10.10;72.20;;;10.34;59.76;98014.34;4967321;28;20050;-48
2021/05/20 03:23:02;;;;;;;1.27;1.00;;;10.10;72.00;;;10.38;59.69;98017.53;4966075;28;20053;-51
2021/05/20 03:25:34;;;;;;;1.97;1.50;;;10.10;72.00;;;10.33;59.80;98010.03;4966524;28;20687;-52
2021/05/20 03:28:03;;;;;;;2.57;2.00;;;10.00;72.50;;;10.22;60.19;98013.69;4965744;28;20055;-52
2021/05/20 03:30:31;;;;;;;2.23;1.40;;;9.90;73.30;;;10.22;60.08;98015.53;4966044;28;20054;-49
2021/05/20 03:32:59;;;;;;;5.53;1.40;;;10.00;72.90;;;10.24;60.19;98009.06;4967839;28;20047;-51
2021/05/20 03:35:27;;;;;;;2.33;1.10;;;10.00;72.60;;;10.27;60.59;98015.06;4966812;28;20057;-52
2021/05/20 03:37:56;;;;;;;1.10;1.00;;;10.00;72.60;;;10.31;60.35;98011.13;4965796;28;20374;-52
2021/05/20 03:40:25;;;;;;;1.90;1.30;;;10.10;72.60;;;10.35;60.21;98012.50;4965314;28;20253;-52
2021/05/20 03:42:54;;;;;;;1.70;1.40;;;10.20;72.30;;;10.36;60.50;98016.84;4966662;28;20055;-53
2021/05/20 03:45:22;;;;;;;2.97;1.63;;;10.20;72.70;;;10.31;59.94;98005.81;4965875;28;20078;-52
2021/05/20 03:47:50;;;;;;;3.37;1.20;;;10.00;72.80;;;10.33;59.83;98020.66;4965934;28;20057;-50
2021/05/20 03:50:18;;;;;;;2.77;1.60;;;10.00;72.80;;;10.31;60.48;98019.13;4965699;28;20053;-50
2021/05/20 03:52:47;;;;;;;1.27;1.10;;;10.00;72.80;;;10.27;60.15;98020.38;4947367;28;20057;-50
2021/05/20 03:55:15;;;;;;;2.60;1.20;;;10.00;72.70;;;10.29;60.35;98018.41;4964600;28;20088;-54
2021/05/20 03:57:43;;;;;;;2.40;2.20;;;10.00;72.60;;;10.33;60.13;98025.13;4965725;28;20042;-49
2021/05/20 04:00:12;;;;;;;5.40;4.03;;;10.10;72.70;;;10.29;60.50;98024.56;4966043;28;20050;-52
2021/05/20 04:02:40;;;;;;;3.30;2.00;;;10.10;72.60;;;10.29;60.82;98021.91;4966871;28;20077;-50
2021/05/20 04:05:10;;;;;;;2.77;1.50;;;10.20;72.50;;;10.29;60.50;98023.72;4966259;28;20057;-52
2021/05/20 04:07:38;;;;;;;2.60;1.30;;;10.20;72.70;;;10.27;60.99;98028.38;4966643;28;20039;-50
2021/05/20 04:10:07;;;;;;;3.10;1.00;;;10.10;72.90;;;10.10;61.39;98025.53;4965470;28;20054;-53
2021/05/20 04:12:35;;;;;;;1.37;1.10;;;10.10;73.20;;;10.11;61.36;98029.03;4966661;28;20053;-53
2021/05/20 04:15:05;;;;;;;1.83;1.43;;;10.10;73.00;;;10.08;61.61;98024.00;4964805;28;20233;-53
2021/05/20 04:17:33;;;;;;;1.23;1.13;;;10.00;73.50;;;9.93;62.85;98029.00;4967334;28;20042;-50
2021/05/20 04:20:01;;;;;;;4.23;1.37;;;10.00;73.70;;;9.95;61.92;98025.19;4980922;28;20059;-51
2021/05/20 04:22:29;;;;;;;1.60;1.50;;;10.00;73.60;;;9.97;62.06;98023.22;4965522;28;20060;-54
2021/05/20 04:24:57;;;;;;;2.90;1.60;;;10.00;74.10;;;10.02;62.26;98028.06;4963947;28;20055;-49
2021/05/20 04:27:26;;;;;;;2.70;1.50;;;10.00;73.70;;;10.03;62.17;98027.09;4966024;28;20057;-49
2021/05/20 04:29:56;;;;;;;2.90;1.63;;;10.00;74.50;;;10.02;62.54;98028.94;4965062;28;20346;-50
2021/05/20 04:32:24;;;;;;;2.93;1.80;;;9.90;75.30;;;10.02;62.49;98031.59;5049766;23;20531;-49
2021/05/20 04:34:52;;;;;;;3.67;1.60;;;9.80;75.80;;;10.07;62.19;98033.81;5044431;28;20056;-46
2021/05/20 04:37:20;;;;;;;1.57;1.40;;;9.80;76.00;;;10.02;62.67;98041.38;5044509;28;20049;-49
2021/05/20 04:39:49;;;;;;;2.80;1.83;;;9.80;76.60;;;10.00;63.05;98038.88;5043821;28;20053;-49
2021/05/20 04:42:17;;;;;;;2.97;1.87;;;9.70;77.20;;;10.07;62.63;98039.13;5045524;28;20052;-48
2021/05/20 04:44:45;;;;;;;2.50;2.20;;;9.80;77.20;;;10.14;62.64;98039.34;5043995;28;20063;-47
2021/05/20 04:47:13;;;;;;;2.30;1.80;;;9.90;76.80;;;10.17;62.72;98044.38;5044771;28;20063;-46
2021/05/20 04:49:41;;;;;;;3.00;2.67;;;9.90;76.50;;;10.21;62.68;98054.56;5042883;28;20051;-47
2021/05/20 04:52:10;;;;;;;1.80;1.60;;;10.00;76.60;;;10.16;63.08;98048.06;5045559;28;20053;-49
2021/05/20 04:54:38;;;;;;;1.80;1.50;;;10.00;77.20;;;10.17;63.34;98052.38;5043991;28;20057;-49
2021/05/20 04:57:06;;;;;;;3.57;1.60;;;9.90;77.60;;;10.18;63.47;98062.88;5027520;28;20059;-48
2021/05/20 04:59:34;;;;;;;3.07;1.67;;;9.90;78.80;;;10.18;63.34;98064.69;5046786;28;20048;-52
2021/05/20 05:02:02;;;;;;;2.33;1.73;;;9.90;78.10;;;10.21;63.60;98067.03;5047900;28;20056;-45
2021/05/20 05:04:31;;;;;;;2.93;2.27;;;10.00;78.30;;;10.27;63.75;98070.94;5046704;28;20277;-47
2021/05/20 05:06:59;;;;;;;2.37;1.93;;;10.10;78.30;;;10.26;64.04;98075.44;5046834;28;20059;-46
2021/05/20 05:09:28;;;;;;;2.60;2.10;;;10.10;78.40;;;10.25;64.40;98071.94;5047616;28;20342;-47
2021/05/20 05:11:56;;;;;;;4.50;2.73;;;10.10;78.70;;;10.29;65.10;98080.44;5048530;28;20262;-46
2021/05/20 05:14:24;;;;;;;2.20;1.47;;;10.20;78.70;;;10.38;64.32;98082.25;5047916;28;20052;-47
2021/05/20 05:16:54;;;;;;;2.50;2.10;;;10.30;78.10;;;10.41;64.04;98087.28;5048198;28;20047;-45
2021/05/20 05:19:22;;;;;;;2.20;2.00;;;10.40;77.50;;;10.52;64.31;98090.72;5048086;28;20350;-47
2021/05/20 05:21:50;;;;;;;2.40;1.97;;;10.50;77.90;;;10.43;63.86;98093.28;5048575;28;20477;-50
2021/05/20 05:24:18;;;;;;;3.17;1.93;;;10.30;77.80;;;10.51;64.06;98095.22;5049508;28;20234;-48
2021/05/20 05:26:46;;;;;;;2.70;2.20;;;10.50;77.40;;;10.59;63.93;98097.13;5047419;28;20346;-47
2021/05/20 05:29:15;;;;;;;5.73;2.30;;;10.50;77.00;;;10.64;63.98;98102.81;5029633;28;20056;-50
2021/05/20 05:31:44;;;;;;;7.33;3.87;;;10.60;76.70;;;10.70;63.56;98098.72;5047324;28;20117;-48
2021/05/20 05:34:12;;;;;;;5.50;3.97;;;10.70;76.70;;;10.75;63.67;98099.13;5046965;28;20299;-47
2021/05/20 05:36:40;;;;;;;5.38;3.20;;;10.70;76.60;;;10.81;63.27;98104.66;5046620;28;20055;-46
2021/05/20 05:39:08;;;;;;;4.63;2.97;;;10.80;76.20;;;10.86;63.36;98104.22;5046947;28;20364;-48
2021/05/20 05:41:37;;;;;;;10.37;5.07;;;10.80;76.40;;;10.83;63.32;98105.34;5046780;28;20053;-48
2021/05/20 05:44:06;;;;;;;9.73;4.88;;;10.70;76.50;;;10.89;63.35;98106.56;5046923;28;20056;-49
2021/05/20 05:46:34;;;;;;;3.78;2.78;;;10.90;76.20;;;10.96;63.24;98115.63;5046129;28;20052;-48
2021/05/20 05:49:49;;;;;;;2.93;1.97;;;10.90;76.10;;;10.94;63.00;98116.78;5046684;28;20045;-48
2021/05/20 05:51:59;;;;;;;2.47;1.87;;;10.90;76.30;;;10.76;63.30;98120.28;5040143;28;20053;-47
2021/05/20 05:54:28;;;;;;;2.43;1.90;;;10.60;76.80;;;10.57;64.11;98115.06;5046524;28;20263;-46
2021/05/20 05:56:56;;;;;;;2.70;2.50;;;10.40;77.20;;;10.62;63.89;98126.09;5046464;28;20049;-49
2021/05/20 05:59:24;;;;;;;2.27;2.07;;;10.60;77.10;;;10.58;64.22;98125.53;5046704;28;20056;-45
2021/05/20 06:01:52;;;;;;;2.17;1.80;;;10.60;76.60;;;10.56;63.96;98124.88;5047972;28;20056;-47
2021/05/20 06:04:21;;;;;;;2.70;2.20;;;10.40;77.10;;;10.32;64.88;98128.09;5046141;28;20052;-46
2021/05/20 06:06:49;;;;;;;3.90;2.13;;;10.20;78.70;;;10.30;64.48;98132.72;5029872;28;20590;-51
2021/05/20 06:09:17;;;;;;;2.50;2.10;;;10.20;77.90;;;10.23;64.99;98135.09;5045140;28;20277;-46
2021/05/20 06:11:45;;;;;;;2.07;1.77;;;10.20;77.70;;;10.11;65.20;98138.09;5046773;28;20053;-46
2021/05/20 06:14:14;;;;;;;2.73;2.47;;;10.10;78.20;;;10.19;65.30;98130.22;5046606;28;20041;-47
2021/05/20 06:16:42;;;;;;;3.27;2.30;;;10.10;78.40;;;10.23;64.87;98132.44;5047277;28;20053;-44
2021/05/20 06:19:12;;;;;;;2.50;1.90;;;10.30;77.50;;;10.22;64.97;98130.75;5047467;28;20266;-45
2021/05/20 06:21:40;;;;;;;2.60;2.30;;;10.30;77.30;;;10.31;64.43;98134.38;5046709;28;20049;-45
2021/05/20 06:24:10;;;;;;;3.13;2.10;;;10.40;77.10;;;10.33;65.25;98136.91;5046081;28;20055;-48
2021/05/20 06:26:38;;;;;;;2.63;1.90;;;10.40;77.60;;;10.36;65.44;98139.28;5045645;28;20052;-45
2021/05/20 06:29:06;;;;;;;2.27;1.93;;;10.40;78.10;;;10.42;65.62;98136.03;5046843;28;20059;-47
2021/05/20 06:31:35;;;;;;;2.40;1.80;;;10.40;78.70;;;10.10;66.63;98128.44;5044698;28;20045;-47
2021/05/20 06:34:03;;;;;;;3.17;1.87;;;10.20;80.00;;;10.27;65.82;98138.28;5046112;28;20053;-50
2021/05/20 06:36:31;;;;;;;3.47;2.20;;;10.30;79.20;;;10.21;66.62;98136.22;5045868;28;20067;-50
2021/05/20 06:39:00;;;;;;;2.97;2.00;;;10.20;80.00;;;10.43;65.68;98143.03;5046407;28;20045;-49
2021/05/20 06:41:28;;;;;;;2.40;2.00;;;10.50;79.30;;;10.44;65.99;98139.38;5046649;28;20063;-49
2021/05/20 06:43:56;;;;;;;2.63;2.23;;;10.40;79.00;;;10.54;65.81;98142.81;5046409;28;20049;-52
2021/05/20 06:46:24;;;;;;;3.33;2.10;;;10.60;78.60;;;10.68;65.31;98148.63;5045678;28;20052;-51
2021/05/20 06:48:54;;;;;;;2.57;1.90;;;10.80;78.00;;;10.73;65.03;98149.03;5046785;28;20037;-50
2021/05/20 06:51:22;;;;;;;2.42;1.67;;;10.80;77.80;;;10.83;64.58;98150.63;5045899;28;20055;-48
2021/05/20 06:53:53;;;;;;;3.13;2.15;;;10.90;77.30;;;10.70;64.58;98150.16;5043323;28;20059;-49
2021/05/20 06:56:24;;;;;;;3.33;2.20;;;10.90;76.40;;;10.59;64.88;98148.53;5044669;28;20338;-50
2021/05/20 07:01:45;;;;;;;3.85;2.10;;;10.80;76.50;;;10.69;63.92;98161.78;5026005;28;20368;-47
2021/05/20 07:04:14;;;;;;;;;;;10.90;75.10;;;10.73;63.90;98152.50;5026174;28;20339;-47
2021/05/20 07:06:43;;;;;;;2.20;1.73;;;10.90;75.50;;;10.68;64.23;98152.13;5040009;28;19917;-54
2021/05/20 07:09:25;;;;;;;2.22;1.92;;;11.00;75.10;;;10.78;63.92;98146.75;5039051;28;20064;-53
2021/05/20 07:11:55;;;;;;;2.83;1.88;;;11.00;74.70;;;10.82;63.50;98148.13;5040889;28;20049;-48
2021/05/20 07:14:25;;;;;;;3.07;2.07;;;11.00;74.40;;;10.85;63.14;98142.47;5026139;28;20075;-48
2021/05/20 07:16:53;;;;;;;2.40;1.98;;;11.00;75.00;;;10.90;63.21;98148.22;5024666;28;20057;-51
2021/05/20 07:19:22;;;;;;;2.28;1.88;;;11.10;74.10;;;10.95;63.21;98155.72;5025718;28;20045;-51
2021/05/20 07:21:51;;;;;;;2.85;2.20;;;11.10;74.30;;;10.98;63.10;98152.78;5026244;28;20343;-52
2021/05/20 07:24:20;;;;;;;2.75;1.92;;;11.20;74.40;;;10.94;63.60;98154.91;5025472;28;20338;-50
2021/05/20 07:26:54;;;;;;;2.35;1.83;;;11.20;74.60;;;11.20;63.20;98152.31;5024383;28;20426;-50
2021/05/20 07:29:22;;;;;;;2.80;1.90;;;11.40;74.60;;;11.37;63.07;98158.63;5052412;28;20049;-52
2021/05/20 07:31:51;;;;;;;3.67;1.92;;;11.60;74.30;;;11.35;63.15;98159.78;5025046;28;20049;-51
2021/05/20 07:34:19;;;;;;;2.75;2.00;;;11.60;73.80;;;11.47;62.85;98153.22;5025638;28;20334;-51
2021/05/20 07:36:47;;;;;;;3.92;2.35;;;11.60;74.10;;;11.60;62.17;98158.97;5025829;28;20059;-49
2021/05/20 07:39:16;;;;;;;10.13;4.93;;;11.80;73.00;;;11.66;62.30;98164.69;5057696;28;20045;-50
2021/05/20 07:41:54;;;;;;;4.55;2.67;;;12.00;72.70;;;11.58;62.15;98171.63;5050999;28;20044;-52
2021/05/20 07:44:28;;;;;;;3.97;2.45;;;11.80;72.90;;;11.48;61.51;98167.41;5059926;28;20061;-50
2021/05/20 07:47:06;;;;;;;3.33;2.13;;;11.70;72.20;;;11.43;61.44;98171.34;5044753;28;20059;-49
2021/05/20 07:49:37;;;;;;;6.07;2.75;;;11.60;72.10;;;11.37;60.77;98176.47;5060243;28;20053;-50
2021/05/20 07:52:32;;;;;;;3.28;2.10;;;11.50;71.60;;;11.31;61.27;98177.06;5053265;28;20061;-51
2021/05/20 07:55:09;;;;;;;2.72;1.90;;;11.40;71.90;;;11.30;61.43;98170.06;5041457;28;20247;-49
2021/05/20 07:57:45;;;;;;;1.92;1.60;;;11.50;72.40;;;11.25;60.92;98180.34;5043837;28;20055;-50
2021/05/20 08:00:17;;;;;;;3.15;1.48;;;11.50;70.80;;;11.22;61.12;98174.34;5049272;28;20057;-50
2021/05/20 08:03:01;;;;;;;1.90;1.42;;;11.40;71.50;;;11.36;60.82;98172.09;5056019;28;20242;-48
2021/05/20 08:05:39;;;;;;;3.22;1.80;;;11.50;70.60;;;11.07;61.02;98173.19;5075777;28;20258;-48
2021/05/20 08:11:06;;;;;;;1.83;1.38;;;11.50;71.30;;;11.38;60.31;98178.13;5059590;28;20247;-51
2021/05/20 08:13:48;;;;;;;2.33;1.70;;;11.70;69.70;;;11.32;59.52;98173.41;5055978;28;20044;-51
2021/05/20 08:16:17;;;;;;;3.47;2.10;;;11.60;69.60;;;11.36;59.78;98170.28;5042507;28;20060;-53
2021/05/20 08:18:47;;;;;;;1.80;1.52;;;11.70;69.50;;;11.35;60.38;98175.78;5060759;28;20045;-48
2021/05/20 08:21:17;;;;;;;1.60;1.33;;;11.70;70.20;;;11.50;59.59;98168.91;5060182;28;20049;-49
2021/05/20 08:23:51;;;;;;;1.92;1.30;;;11.80;68.90;;;11.66;59.59;98164.69;5042740;28;20061;-47
2021/05/20 08:26:27;;;;;;;1.38;1.15;;;12.00;68.80;;;11.81;59.22;98166.63;5042647;28;20067;-51
2021/05/20 08:29:00;;;;;;;2.15;1.65;;;12.20;68.20;;;11.82;58.95;98160.31;5076249;28;20354;-50
2021/05/20 08:31:32;;;;;;;1.75;1.42;;;12.20;68.40;;;11.97;59.12;98151.75;5061610;28;20067;-51
2021/05/20 08:34:00;;;;;;;1.45;1.30;;;12.40;68.90;;;12.08;58.62;98155.97;5064652;28;20049;-49
2021/05/20 08:36:28;;;;;;;2.35;1.23;;;12.50;67.70;;;12.15;58.42;98154.34;5064667;28;20052;-49
2021/05/20 08:38:56;;;;;;;1.55;1.25;;;12.50;67.50;;;12.02;57.55;98170.81;5065070;28;20056;-50
2021/05/20 08:41:25;;;;;;;2.85;1.40;;;12.30;66.40;;;12.09;58.02;98152.31;5064541;28;20241;-49
2021/05/20 08:43:53;;;;;;;1.50;1.23;;;12.40;67.40;;;12.07;57.55;98175.66;5064486;28;20059;-49
2021/05/20 08:46:24;;;;;;;2.45;1.60;;;12.50;66.50;;;12.12;57.49;98155.53;5064784;28;20045;-48
2021/05/20 08:48:52;;;;;;;2.42;1.77;;;12.60;66.60;;;12.34;58.66;98147.94;5064214;28;20281;-54
2021/05/20 08:51:20;;;;;;;1.30;1.20;;;12.80;67.00;;;12.55;58.68;98161.72;5063328;28;20055;-53
2021/05/20 08:53:48;;;;;;;1.60;1.50;;;13.10;67.80;;;12.52;58.60;98163.88;5057368;28;20041;-49
2021/05/20 08:56:17;;;;;;;3.95;1.42;;;13.10;67.30;;;12.53;57.93;98157.56;5044326;28;20049;-48
2021/05/20 08:58:46;;;;;;;1.55;1.30;;;12.90;66.60;;;12.67;58.25;98166.78;5059870;28;20064;-53
2021/05/20 09:01:34;;;;;;;1.95;1.30;;;13.10;67.20;;;12.48;58.24;98159.84;5043867;28;20057;-50
2021/05/20 09:04:03;;;;;;;1.88;1.40;;;12.90;67.00;;;12.60;58.25;98158.56;5044359;28;20294;-52
2021/05/20 09:06:42;;;;;;;1.55;1.40;;;13.00;67.80;;;12.56;58.44;98167.91;5027216;28;20049;-53
2021/05/20 09:09:14;;;;;;;2.42;1.40;;;13.10;67.20;;;12.57;57.46;98170.41;5043839;28;20053;-51
2021/05/20 09:11:58;;;;;;;1.83;1.55;;;13.00;66.50;;;12.45;56.06;98154.84;5043913;28;20045;-50
2021/05/20 09:14:35;;;;;;;3.78;1.80;;;12.80;64.50;;;12.53;57.18;98168.22;5044280;28;20343;-51
2021/05/20 09:17:14;;;;;;;3.72;1.05;;;12.90;65.20;;;12.60;55.49;98159.41;5044306;28;20050;-50
2021/05/20 09:19:52;;;;;;;2.47;1.15;;;12.90;63.50;;;12.54;55.58;98167.22;5044604;28;20045;-48
2021/05/20 09:22:21;;;;;;;2.00;1.30;;;12.90;64.00;;;12.68;56.20;98155.94;5043868;28;20049;-49
2021/05/20 09:25:00;;;;;;;1.38;1.27;;;13.10;65.10;;;12.78;55.43;98163.81;5044065;28;20045;-50
2021/05/20 09:27:36;;;;;;;2.58;1.30;;;13.20;63.70;;;12.87;55.34;98159.31;5026867;28;20049;-51
2021/05/20 09:30:18;;;;;;;2.75;1.30;;;13.20;63.80;;;13.04;56.00;98160.19;5043958;28;20053;-50
2021/05/20 09:32:57;;;;;;;1.30;1.10;;;13.40;64.40;;;13.03;54.71;98164.72;5043563;28;20052;-51
2021/05/20 09:35:29;;;;;;;1.38;1.20;;;13.40;62.80;;;13.20;55.14;98153.03;5034639;28;20238;-47
2021/05/20 09:38:00;;;;;;;1.35;1.23;;;13.70;64.30;;;13.29;55.33;98164.56;5063998;28;20331;-51
2021/05/20 09:40:41;;;;;;;1.90;1.48;;;13.70;63.60;;;13.45;56.03;98152.25;5063331;28;20060;-49
2021/05/20 09:43:31;;;;;;;2.97;1.20;;;13.90;64.80;;;13.44;54.49;98158.59;5062437;28;20326;-49
2021/05/20 09:46:03;;;;;;;2.75;1.98;;;13.90;62.20;;;13.36;54.88;98156.78;5063530;28;20334;-48
2021/05/20 09:48:38;;;;;;;3.38;1.83;;;13.80;62.90;;;13.34;52.19;98158.78;5062924;28;20049;-50
2021/05/20 09:51:21;;;;;;;1.20;1.10;;;13.70;59.80;;;13.28;52.56;98159.38;5062498;28;20051;-50
2021/05/20 09:53:52;;;;;;;1.38;0.98;;;13.50;61.00;;;13.14;52.67;98156.38;5055730;28;20041;-50
2021/05/20 09:56:34;;;;;;;1.42;1.20;;;13.40;61.20;;;13.12;53.80;98155.69;5043280;28;20328;-51
2021/05/20 09:59:03;;;;;;;1.13;1.00;;;13.30;62.40;;;13.07;54.27;98142.00;5043534;28;20054;-50
2021/05/20 10:01:31;;;;;;;1.83;1.23;;;13.20;63.40;;;13.19;53.99;98145.19;5061733;28;20358;-49
2021/05/20 10:03:59;;;;;;;1.83;1.08;;;13.40;62.60;;;13.05;54.33;98145.84;5062917;28;20052;-49
2021/05/20 10:06:56;;;;;;;1.85;1.30;;;13.40;62.60;;;13.08;53.43;98149.00;5064138;28;20245;-50
2021/05/20 10:09:24;;;;;;;1.85;1.15;;;13.40;60.70;;;13.02;52.71;98140.81;5038963;28;20065;-50
2021/05/20 10:11:54;;;;;;;1.00;0.90;;;13.30;59.60;;;13.10;53.26;98138.97;5019254;28;20354;-52
2021/05/20 10:14:23;;;;;;;1.15;0.93;;;13.40;61.00;;;13.01;53.08;98134.66;5031602;28;20056;-49
2021/05/20 10:16:52;;;;;;;1.05;1.00;;;13.40;61.00;;;13.03;49.79;98140.66;5048276;28;20346;-50
2021/05/20 10:19:20;;;;;;;1.33;0.80;;;13.30;56.60;;;13.19;51.33;98131.81;5013191;28;20048;-56
2021/05/20 10:21:48;;;;;;;1.30;0.80;;;13.40;58.80;;;13.30;52.70;98120.84;5046777;28;20067;-51
2021/05/20 10:24:17;;;;;;;1.77;1.02;;;13.60;60.80;;;13.35;51.54;98129.16;5029081;28;20375;-53
2021/05/20 10:26:45;;;;;;;2.80;1.10;;;13.70;59.00;;;13.48;53.05;98123.31;5032342;28;20559;-49
2021/05/20 10:29:13;;;;;;;1.33;0.93;;;13.80;61.10;;;13.38;53.37;98130.69;5045349;28;20075;-47
2021/05/20 10:31:43;;;;;;;1.20;1.10;;;13.80;61.10;;;13.48;53.78;98143.91;5046717;28;20045;-47
2021/05/20 10:34:14;;;;;;;1.30;1.20;;;13.80;61.80;;;13.50;53.73;98129.34;5046688;28;20360;-46
2021/05/20 10:37:06;;;;;;;2.50;1.13;;;13.80;61.80;;;13.52;52.63;98119.31;5030687;28;20059;-45
2021/05/20 10:39:34;;;;;;;1.65;1.30;;;13.80;60.60;;;13.61;52.88;98120.16;5044025;28;20057;-48